createdAt,value
2023-07-11T00:00:48.845Z,14.79
2023-07-11T00:03:34.231Z,14.80
2023-07-11T00:06:20.847Z,14.80
2023-07-11T00:09:06.726Z,14.78
2023-07-11T00:11:52.343Z,14.96
2023-07-11T00:14:37.502Z,14.97
2023-07-11T00:17:23.016Z,14.96
2023-07-11T00:20:09.124Z,14.93
2023-07-11T00:22:54.404Z,14.93
2023-07-11T00:25:39.523Z,14.94
2023-07-11T00:28:25.078Z,14.93
2023-07-11T00:31:10.271Z,14.92
2023-07-11T00:33:56.246Z,14.93
2023-07-11T00:36:41.509Z,14.88
2023-07-11T00:39:31.959Z,14.81
2023-07-11T00:42:17.448Z,14.76
2023-07-11T00:45:04.172Z,14.73
2023-07-11T00:47:49.444Z,14.71
2023-07-11T00:50:34.702Z,14.79
2023-07-11T00:53:20.243Z,14.80
2023-07-11T00:56:09.036Z,14.62
2023-07-11T00:58:55.043Z,14.29
2023-07-11T01:01:44.096Z,14.12
2023-07-11T01:04:30.546Z,14.23
2023-07-11T01:07:19.639Z,14.22
2023-07-11T01:10:06.053Z,13.97
2023-07-11T01:12:58.740Z,14.34
2023-07-11T01:15:44.055Z,14.33
2023-07-11T01:18:29.382Z,14.21
2023-07-11T01:21:19.559Z,14.21
2023-07-11T01:24:05.558Z,14.27
2023-07-11T01:26:51.026Z,14.33
2023-07-11T01:29:37.201Z,14.35
2023-07-11T01:32:22.573Z,14.34
2023-07-11T01:35:08.688Z,14.28
2023-07-11T01:37:54.610Z,14.13
2023-07-11T01:40:39.792Z,14.20
2023-07-11T01:43:25.090Z,14.28
2023-07-11T01:46:10.454Z,14.24
2023-07-11T01:48:56.197Z,14.14
2023-07-11T01:51:45.727Z,13.95
2023-07-11T01:54:31.479Z,13.96
2023-07-11T01:57:17.782Z,13.95
2023-07-11T02:00:03.350Z,13.97
2023-07-11T02:02:48.844Z,13.97
2023-07-11T02:05:34.037Z,13.92
2023-07-11T02:08:19.516Z,13.85
2023-07-11T02:11:05.003Z,13.85
2023-07-11T02:13:50.414Z,13.84
2023-07-11T02:16:35.479Z,13.85
2023-07-11T02:19:23.262Z,13.85
2023-07-11T02:22:09.299Z,13.68
2023-07-11T02:24:54.802Z,13.65
2023-07-11T02:27:40.040Z,13.61
2023-07-11T02:30:25.344Z,13.68
2023-07-11T02:33:10.781Z,13.75
2023-07-11T02:35:56.038Z,13.79
2023-07-11T02:38:41.394Z,13.79
2023-07-11T02:41:27.449Z,13.81
2023-07-11T02:44:12.655Z,13.84
2023-07-11T02:46:58.054Z,13.83
2023-07-11T02:49:43.364Z,13.83
2023-07-11T02:52:29.057Z,13.81
2023-07-11T02:55:14.554Z,13.69
2023-07-11T02:58:00.427Z,13.33
2023-07-11T03:00:50.259Z,13.68
2023-07-11T03:03:35.714Z,13.63
2023-07-11T03:06:21.131Z,13.31
2023-07-11T03:09:06.552Z,13.04
2023-07-11T03:11:52.398Z,12.79
2023-07-11T03:14:37.610Z,12.56
2023-07-11T03:17:23.149Z,12.59
2023-07-11T03:20:09.236Z,12.66
2023-07-11T03:22:54.450Z,12.66
2023-07-11T03:25:39.934Z,12.80
2023-07-11T03:28:25.246Z,12.80
2023-07-11T03:31:10.885Z,12.80
2023-07-11T03:33:55.966Z,12.80
2023-07-11T03:36:41.323Z,12.88
2023-07-11T03:39:26.789Z,12.88
2023-07-11T03:42:12.340Z,12.97
2023-07-11T03:44:57.376Z,13.11
2023-07-11T03:47:42.858Z,12.86
2023-07-11T03:50:28.077Z,12.73
2023-07-11T03:53:13.813Z,12.82
2023-07-11T03:55:59.260Z,13.05
2023-07-11T03:58:44.418Z,13.19
2023-07-11T04:01:29.811Z,13.06
2023-07-11T04:04:15.132Z,13.44
2023-07-11T04:07:00.671Z,13.56
2023-07-11T04:09:46.354Z,13.74
2023-07-11T04:12:32.071Z,13.94
2023-07-11T04:15:18.050Z,14.15
2023-07-11T04:18:03.889Z,14.39
2023-07-11T04:20:48.987Z,14.64
2023-07-11T04:23:34.420Z,14.81
2023-07-11T04:26:19.660Z,14.93
2023-07-11T04:29:04.908Z,14.81
2023-07-11T04:31:50.311Z,15.02
2023-07-11T04:34:35.491Z,15.05
2023-07-11T04:37:21.368Z,15.16
2023-07-11T04:40:07.318Z,15.11
2023-07-11T04:42:52.891Z,15.35
2023-07-11T04:45:38.149Z,15.77
2023-07-11T04:48:23.586Z,15.98
2023-07-11T04:51:09.714Z,16.02
2023-07-11T04:53:55.411Z,15.75
2023-07-11T04:56:42.261Z,15.79
2023-07-11T04:59:27.818Z,15.78
2023-07-11T05:02:13.333Z,16.53
2023-07-11T05:04:58.959Z,16.04
2023-07-11T05:07:44.143Z,15.79
2023-07-11T05:10:29.553Z,15.85
2023-07-11T05:13:15.148Z,15.98
2023-07-11T05:16:08.968Z,16.37
2023-07-11T05:18:57.279Z,16.54
2023-07-11T05:21:42.488Z,16.59
2023-07-11T05:24:28.060Z,16.59
2023-07-11T05:27:13.233Z,16.86
2023-07-11T05:29:58.523Z,16.83
2023-07-11T05:32:43.837Z,16.87
2023-07-11T05:35:29.018Z,17.04
2023-07-11T05:38:20.900Z,17.21
2023-07-11T05:41:06.532Z,17.37
2023-07-11T05:43:51.916Z,17.43
2023-07-11T05:46:37.203Z,17.69
2023-07-11T05:49:22.550Z,17.83
2023-07-11T05:52:08.193Z,18.02
2023-07-11T05:54:53.660Z,18.14
2023-07-11T05:57:38.866Z,18.34
2023-07-11T06:00:24.361Z,18.34
2023-07-11T06:03:09.846Z,18.33
2023-07-11T06:05:59.604Z,18.41
2023-07-11T06:08:45.653Z,18.74
2023-07-11T06:11:31.220Z,18.99
2023-07-11T06:14:18.048Z,19.20
2023-07-11T06:17:04.423Z,19.53
2023-07-11T06:19:49.873Z,19.72
2023-07-11T06:22:35.519Z,19.90
2023-07-11T06:25:20.950Z,19.61
2023-07-11T06:28:06.275Z,20.15
2023-07-11T06:30:52.096Z,20.36
2023-07-11T06:33:37.535Z,20.39
2023-07-11T06:36:22.981Z,20.51
2023-07-11T06:39:08.251Z,20.58
2023-07-11T06:41:53.402Z,20.95
2023-07-11T06:44:44.433Z,21.01
2023-07-11T06:47:30.989Z,21.41
2023-07-11T06:50:16.453Z,21.48
2023-07-11T06:53:02.661Z,21.47
2023-07-11T06:55:49.877Z,21.61
2023-07-11T06:58:35.205Z,21.85
2023-07-11T07:04:12.703Z,22.17
2023-07-11T07:06:58.477Z,22.26
2023-07-11T07:09:43.855Z,22.61
2023-07-11T07:12:29.549Z,22.83
2023-07-11T07:15:16.153Z,22.83
2023-07-11T07:18:01.391Z,23.14
2023-07-11T07:20:57.117Z,22.99
2023-07-11T07:23:53.388Z,23.02
2023-07-11T07:26:38.782Z,23.35
2023-07-11T07:29:25.207Z,23.55
2023-07-11T07:32:10.426Z,23.52
2023-07-11T07:34:55.948Z,24.05
2023-07-11T07:37:41.400Z,24.16
2023-07-11T07:40:26.592Z,24.20
2023-07-11T07:43:11.984Z,24.65
2023-07-11T07:45:59.679Z,24.55
2023-07-11T07:48:45.023Z,24.44
2023-07-11T07:51:30.468Z,24.21
2023-07-11T07:54:15.950Z,24.51
2023-07-11T07:57:01.699Z,24.59
2023-07-11T07:59:47.034Z,24.97
2023-07-11T08:02:33.201Z,25.19
2023-07-11T08:05:18.491Z,25.27
2023-07-11T08:08:05.857Z,25.04
2023-07-11T08:10:51.714Z,25.12
2023-07-11T08:13:49.070Z,25.51
2023-07-11T08:16:42.624Z,25.39
2023-07-11T08:19:28.259Z,25.55
2023-07-11T08:22:13.593Z,25.71
2023-07-11T08:24:59.170Z,25.74
2023-07-11T08:27:44.522Z,25.56
2023-07-11T08:30:30.007Z,25.77
2023-07-11T08:33:16.186Z,25.95
2023-07-11T08:36:01.646Z,26.09
2023-07-11T08:38:46.931Z,26.24
2023-07-11T08:41:53.516Z,26.28
2023-07-11T08:44:46.698Z,26.66
2023-07-11T08:47:37.831Z,27.17
2023-07-11T08:50:32.514Z,27.20
2023-07-11T08:53:25.810Z,27.24
2023-07-11T08:56:25.688Z,27.58
2023-07-11T08:59:36.206Z,27.61
2023-07-11T09:02:42.784Z,27.43
2023-07-11T09:05:27.895Z,27.02
2023-07-11T09:08:21.532Z,27.43
2023-07-11T09:11:13.058Z,27.14
2023-07-11T09:14:35.873Z,27.47
2023-07-11T09:17:33.025Z,27.62
2023-07-11T09:20:36.825Z,27.78
2023-07-11T09:23:43.567Z,28.17
2023-07-11T09:26:30.941Z,28.74
2023-07-11T09:29:18.180Z,28.79
2023-07-11T09:32:04.816Z,28.58
2023-07-11T09:34:51.080Z,28.64
2023-07-11T09:37:42.040Z,28.86
2023-07-11T09:40:33.865Z,28.89
2023-07-11T09:43:19.405Z,29.05
2023-07-11T09:46:12.760Z,29.64
2023-07-11T09:49:00.744Z,29.44
2023-07-11T09:51:55.172Z,29.97
2023-07-11T09:54:55.583Z,30.08
2023-07-11T09:57:51.172Z,30.21
2023-07-11T10:00:45.124Z,30.27
2023-07-11T10:03:33.004Z,30.18
2023-07-11T10:09:33.406Z,29.82
2023-07-11T10:12:25.423Z,29.43
2023-07-11T10:15:16.156Z,29.53
2023-07-11T10:18:01.348Z,30.12
2023-07-11T10:20:50.603Z,30.19
2023-07-11T10:23:36.529Z,30.52
2023-07-11T10:26:27.818Z,30.53
2023-07-11T10:29:25.022Z,30.66
2023-07-11T10:32:16.367Z,30.58
2023-07-11T10:35:05.186Z,30.68
2023-07-11T10:38:01.957Z,31.10
2023-07-11T10:40:50.657Z,31.29
2023-07-11T10:43:39.071Z,31.10
2023-07-11T10:46:27.388Z,31.49
2023-07-11T10:49:18.572Z,31.30
2023-07-11T10:52:14.519Z,31.61
2023-07-11T10:55:21.170Z,31.57
2023-07-11T10:58:06.559Z,31.23
2023-07-11T11:01:15.461Z,31.43
2023-07-11T11:04:22.180Z,31.80
2023-07-11T11:07:32.562Z,31.56
2023-07-11T11:10:42.670Z,31.97
2023-07-11T11:13:55.850Z,32.14
2023-07-11T11:17:12.970Z,32.32
2023-07-11T11:20:24.909Z,32.17
2023-07-11T11:23:41.531Z,31.60
2023-07-11T11:26:35.153Z,32.11
2023-07-11T11:29:42.388Z,32.43
2023-07-11T11:32:43.618Z,32.88
2023-07-11T11:35:29.385Z,32.97
2023-07-11T11:38:36.481Z,32.11
2023-07-11T11:41:33.530Z,32.26
2023-07-11T11:48:20.900Z,32.12
2023-07-11T11:50:40.865Z,32.41
2023-07-11T11:53:40.447Z,32.27
2023-07-11T11:56:28.345Z,32.29
2023-07-11T11:59:23.454Z,32.51
2023-07-11T12:02:17.159Z,32.26
2023-07-11T12:05:18.128Z,32.51
2023-07-11T12:08:26.657Z,32.55
2023-07-11T12:11:12.741Z,32.80
2023-07-11T12:14:20.703Z,33.05
2023-07-11T12:17:32.638Z,32.97
2023-07-11T12:20:26.391Z,32.98
2023-07-11T12:23:27.812Z,33.05
2023-07-11T12:26:26.153Z,33.19
2023-07-11T12:29:36.398Z,33.05
2023-07-11T12:32:35.299Z,32.75
2023-07-11T12:35:23.832Z,32.74
2023-07-11T12:38:24.004Z,32.53
2023-07-11T12:41:42.928Z,33.06
2023-07-11T12:44:35.649Z,32.72
2023-07-11T12:47:21.625Z,33.09
2023-07-11T12:50:21.689Z,32.96
2023-07-11T12:53:09.218Z,33.25
2023-07-11T12:55:56.657Z,33.05
2023-07-11T12:58:43.114Z,32.74
2023-07-11T13:01:32.834Z,32.80
2023-07-11T13:04:36.652Z,33.18
2023-07-11T13:07:25.961Z,33.03
2023-07-11T13:10:26.419Z,32.73
2023-07-11T13:13:13.148Z,32.83
2023-07-11T13:16:02.149Z,33.32
2023-07-11T13:18:49.582Z,33.15
2023-07-11T13:21:35.113Z,33.15
2023-07-11T13:24:29.618Z,32.87
2023-07-11T13:27:28.764Z,33.27
2023-07-11T13:30:37.456Z,33.10
2023-07-11T13:33:24.365Z,33.65
2023-07-11T13:39:13.516Z,33.68
2023-07-11T13:42:00.913Z,33.68
2023-07-11T13:44:49.041Z,33.35
2023-07-11T13:47:35.607Z,33.09
2023-07-11T13:50:24.327Z,33.11
2023-07-11T13:53:19.765Z,32.96
2023-07-11T13:56:05.353Z,32.87
2023-07-11T13:58:51.263Z,32.34
2023-07-11T14:01:41.616Z,32.50
2023-07-11T14:04:32.445Z,32.57
2023-07-11T14:07:17.588Z,32.87
2023-07-11T14:10:03.095Z,32.68
2023-07-11T14:12:48.642Z,32.55
2023-07-11T14:15:33.961Z,32.74
2023-07-11T14:18:19.270Z,33.03
2023-07-11T14:21:05.717Z,32.82
2023-07-11T14:23:51.196Z,32.73
2023-07-11T14:26:36.876Z,32.25
2023-07-11T14:29:29.703Z,32.78
2023-07-11T14:32:19.900Z,33.20
2023-07-11T14:35:06.158Z,32.87
2023-07-11T14:37:51.972Z,32.22
2023-07-11T14:40:37.184Z,32.00
2023-07-11T14:43:25.554Z,31.94
2023-07-11T14:46:10.807Z,31.94
2023-07-11T14:48:56.009Z,32.38
2023-07-11T14:51:41.725Z,32.36
2023-07-11T14:54:27.960Z,32.73
2023-07-11T14:57:16.312Z,32.60
2023-07-11T15:00:18.905Z,32.72
2023-07-11T15:03:19.573Z,32.64
2023-07-11T15:06:55.378Z,32.57
2023-07-11T15:18:29.059Z,32.88
2023-07-11T15:21:14.866Z,33.10
2023-07-11T15:24:00.367Z,33.11
2023-07-11T15:26:46.795Z,33.39
2023-07-11T15:29:32.017Z,33.36
2023-07-11T15:32:23.736Z,33.18
2023-07-11T15:35:21.224Z,33.08
2023-07-11T15:38:18.090Z,33.06
2023-07-11T15:41:07.826Z,33.22
2023-07-11T15:43:52.835Z,33.09
2023-07-11T15:46:38.155Z,33.18
2023-07-11T15:49:24.975Z,32.48
2023-07-11T15:52:10.150Z,32.09
2023-07-11T15:54:56.131Z,32.14
2023-07-11T15:57:44.161Z,32.13
2023-07-11T16:00:32.620Z,32.41
2023-07-11T16:03:20.701Z,32.60
2023-07-11T16:06:14.304Z,32.87
2023-07-11T16:08:59.689Z,32.88
2023-07-11T16:11:45.142Z,32.85
2023-07-11T16:14:30.332Z,32.69
2023-07-11T16:17:20.695Z,32.73
2023-07-11T16:20:18.617Z,33.01
2023-07-11T16:23:03.793Z,32.68
2023-07-11T16:25:50.130Z,32.40
2023-07-11T16:28:37.396Z,32.67
2023-07-11T16:31:24.901Z,32.20
2023-07-11T16:34:18.787Z,31.68
2023-07-11T16:37:10.349Z,32.36
2023-07-11T16:39:55.935Z,32.55
2023-07-11T16:42:41.570Z,32.39
2023-07-11T16:45:34.191Z,32.48
2023-07-11T16:48:28.425Z,32.25
2023-07-11T16:51:23.239Z,32.25
2023-07-11T16:54:21.234Z,32.23
2023-07-11T16:57:14.689Z,31.97
2023-07-11T17:00:00.313Z,32.28
2023-07-11T17:02:47.093Z,32.55
2023-07-11T17:05:33.487Z,32.47
2023-07-11T17:08:22.149Z,32.39
2023-07-11T17:11:09.956Z,31.82
2023-07-11T17:13:56.534Z,31.95
2023-07-11T17:16:52.032Z,31.79
2023-07-11T17:19:37.536Z,31.71
2023-07-11T17:22:24.144Z,31.67
2023-07-11T17:25:17.443Z,31.62
2023-07-11T17:28:03.364Z,31.41
2023-07-11T17:30:49.526Z,31.35
2023-07-11T17:33:36.203Z,31.23
2023-07-11T17:36:21.597Z,31.47
2023-07-11T17:39:19.629Z,31.39
2023-07-11T17:42:10.706Z,31.52
2023-07-11T17:44:57.099Z,31.44
2023-07-11T17:48:03.073Z,31.19
2023-07-11T17:50:49.971Z,31.42
2023-07-11T17:53:35.457Z,31.14
2023-07-11T17:56:21.038Z,30.90
2023-07-11T17:59:06.223Z,30.72
2023-07-11T18:01:51.653Z,30.89
2023-07-11T18:04:37.078Z,30.70
2023-07-11T18:07:31.050Z,30.83
2023-07-11T18:10:29.484Z,30.60
2023-07-11T18:13:14.638Z,31.02
2023-07-11T18:16:00.230Z,31.05
2023-07-11T18:18:45.876Z,30.95
2023-07-11T18:21:31.482Z,30.79
2023-07-11T18:24:17.094Z,30.75
2023-07-11T18:27:02.201Z,30.54
2023-07-11T18:29:49.225Z,30.42
2023-07-11T18:32:42.100Z,30.30
2023-07-11T18:35:27.634Z,30.23
2023-07-11T18:38:18.767Z,30.03
2023-07-11T18:41:04.519Z,29.78
2023-07-11T18:43:49.796Z,29.50
2023-07-11T18:46:35.499Z,29.50
2023-07-11T18:49:20.973Z,29.44
2023-07-11T18:52:17.735Z,29.37
2023-07-11T18:55:03.267Z,29.27
2023-07-11T18:57:49.908Z,29.15
2023-07-11T19:00:44.198Z,29.10
2023-07-11T19:03:29.418Z,28.89
2023-07-11T19:06:17.345Z,28.70
2023-07-11T19:09:02.665Z,28.48
2023-07-11T19:11:47.954Z,28.09
2023-07-11T19:14:33.134Z,28.05
2023-07-11T19:17:40.581Z,27.93
2023-07-11T19:20:29.510Z,27.69
2023-07-11T19:23:20.594Z,27.64
2023-07-11T19:26:13.782Z,27.27
2023-07-11T19:28:59.208Z,27.09
2023-07-11T19:31:44.759Z,26.93
2023-07-11T19:34:30.293Z,26.75
2023-07-11T19:37:18.019Z,26.68
2023-07-11T19:40:05.183Z,26.28
2023-07-11T19:42:50.519Z,25.83
2023-07-11T19:45:42.547Z,25.56
2023-07-11T19:48:28.375Z,25.29
2023-07-11T19:51:14.652Z,25.21
2023-07-11T19:54:00.147Z,25.08
2023-07-11T19:56:45.567Z,24.99
2023-07-11T19:59:31.199Z,25.02
2023-07-11T20:02:17.703Z,24.67
2023-07-11T20:05:03.505Z,24.95
2023-07-11T20:07:49.044Z,24.85
2023-07-11T20:10:36.600Z,24.78
2023-07-11T20:13:22.969Z,24.30
2023-07-11T20:16:24.685Z,24.60
2023-07-11T20:19:13.407Z,24.60
2023-07-11T20:21:58.802Z,24.38
2023-07-11T20:24:47.639Z,24.47
2023-07-11T20:27:33.492Z,24.25
2023-07-11T20:30:22.559Z,24.55
2023-07-11T20:33:12.692Z,24.37
2023-07-11T20:36:13.450Z,24.21
2023-07-11T20:38:59.216Z,24.18
2023-07-11T20:41:44.284Z,24.13
2023-07-11T20:44:29.822Z,24.16
2023-07-11T20:47:14.967Z,24.01
2023-07-11T20:50:00.212Z,24.01
2023-07-11T20:52:47.302Z,23.70
2023-07-11T20:55:34.843Z,23.94
2023-07-11T20:58:20.168Z,23.93
2023-07-11T21:01:05.589Z,23.82
2023-07-11T21:03:51.141Z,23.71
2023-07-11T21:06:39.613Z,23.61
2023-07-11T21:09:24.619Z,23.34
2023-07-11T21:12:13.243Z,23.24
2023-07-11T21:14:58.601Z,23.29
2023-07-11T21:17:43.855Z,23.24
2023-07-11T21:20:32.334Z,23.18
2023-07-11T21:23:18.208Z,23.20
2023-07-11T21:26:12.762Z,23.13
2023-07-11T21:28:58.877Z,23.15
2023-07-11T21:31:44.673Z,23.08
2023-07-11T21:34:30.661Z,23.16
2023-07-11T21:37:16.131Z,23.09
2023-07-11T21:40:01.493Z,23.28
2023-07-11T21:42:48.116Z,23.34
2023-07-11T21:45:37.923Z,23.40
2023-07-11T21:48:28.094Z,23.24
2023-07-11T21:51:15.159Z,23.24
2023-07-11T21:54:00.586Z,23.29
2023-07-11T21:56:46.203Z,23.29
2023-07-11T21:59:31.508Z,23.15
2023-07-11T22:02:16.778Z,23.15
2023-07-11T22:05:02.605Z,23.17
2023-07-11T22:07:48.354Z,23.40
2023-07-11T22:10:35.162Z,23.50
2023-07-11T22:13:24.216Z,23.41
2023-07-11T22:16:24.834Z,23.44
2023-07-11T22:19:13.774Z,23.62
2023-07-11T22:22:05.090Z,23.58
2023-07-11T22:24:51.528Z,23.54
2023-07-11T22:27:36.982Z,23.23
2023-07-11T22:30:27.414Z,23.22
2023-07-11T22:33:15.083Z,22.65
2023-07-11T22:36:00.566Z,22.70
2023-07-11T22:38:46.014Z,22.66
2023-07-11T22:41:31.413Z,22.67
2023-07-11T22:44:17.231Z,22.45
2023-07-11T22:47:02.890Z,22.38
2023-07-11T22:49:48.308Z,22.41
2023-07-11T22:52:34.086Z,22.28
2023-07-11T22:55:21.809Z,22.02
2023-07-11T22:58:16.034Z,21.71
2023-07-11T23:01:06.826Z,21.53
2023-07-11T23:03:52.720Z,21.78
2023-07-11T23:06:39.706Z,21.99
2023-07-11T23:09:24.881Z,21.90
2023-07-11T23:12:12.586Z,21.76
2023-07-11T23:14:57.918Z,21.96
2023-07-11T23:17:43.788Z,21.44
2023-07-11T23:20:29.560Z,21.65
2023-07-11T23:23:14.966Z,21.67
2023-07-11T23:26:00.619Z,20.99
2023-07-11T23:28:46.335Z,20.55
2023-07-11T23:31:33.354Z,20.51
2023-07-11T23:34:18.359Z,20.37
2023-07-11T23:37:03.935Z,20.15
2023-07-11T23:39:49.135Z,20.26
2023-07-11T23:42:34.575Z,20.63
2023-07-11T23:45:20.346Z,20.38
2023-07-11T23:48:17.579Z,20.32
2023-07-11T23:51:03.079Z,20.57
2023-07-11T23:53:50.518Z,20.24
2023-07-11T23:56:36.002Z,20.24
2023-07-11T23:59:21.331Z,20.38
